sensor_id;sensor_type;location;lat;lon;timestamp;P1;durP1;ratioP1;P2;durP2;ratioP2
25073;SDS011;13066;52.042;5.648;2024-03-08T00:00:13;41.72;;;25.35;;
25073;SDS011;13066;52.042;5.648;2024-03-08T00:02:47;38.90;;;24.63;;
25073;SDS011;13066;52.042;5.648;2024-03-08T00:05:17;35.80;;;24.60;;
25073;SDS011;13066;52.042;5.648;2024-03-08T00:07:45;39.38;;;24.85;;
25073;SDS011;13066;52.042;5.648;2024-03-08T00:10:14;36.60;;;23.65;;
25073;SDS011;13066;52.042;5.648;2024-03-08T00:12:44;33.78;;;23.83;;
25073;SDS011;13066;52.042;5.648;2024-03-08T00:15:14;40.40;;;24.83;;
25073;SDS011;13066;52.042;5.648;2024-03-08T00:17:45;36.20;;;23.88;;
25073;SDS011;13066;52.042;5.648;2024-03-08T00:20:16;36.97;;;23.83;;
25073;SDS011;13066;52.042;5.648;2024-03-08T00:22:46;38.65;;;24.70;;
25073;SDS011;13066;52.042;5.648;2024-03-08T00:25:14;39.78;;;24.75;;
25073;SDS011;13066;52.042;5.648;2024-03-08T00:27:42;37.72;;;24.80;;
25073;SDS011;13066;52.042;5.648;2024-03-08T00:30:11;40.60;;;24.50;;
25073;SDS011;13066;52.042;5.648;2024-03-08T00:32:41;40.25;;;25.17;;
25073;SDS011;13066;52.042;5.648;2024-03-08T00:35:09;37.47;;;24.77;;
25073;SDS011;13066;52.042;5.648;2024-03-08T00:37:40;37.30;;;24.35;;
25073;SDS011;13066;52.042;5.648;2024-03-08T00:40:09;38.72;;;24.52;;
25073;SDS011;13066;52.042;5.648;2024-03-08T00:42:38;41.15;;;25.17;;
25073;SDS011;13066;52.042;5.648;2024-03-08T00:45:06;37.92;;;24.45;;
25073;SDS011;13066;52.042;5.648;2024-03-08T00:47:37;38.10;;;24.40;;
25073;SDS011;13066;52.042;5.648;2024-03-08T00:50:06;38.45;;;24.98;;
25073;SDS011;13066;52.042;5.648;2024-03-08T00:52:35;36.88;;;24.10;;
25073;SDS011;13066;52.042;5.648;2024-03-08T00:55:07;38.50;;;24.95;;
25073;SDS011;13066;52.042;5.648;2024-03-08T00:57:37;36.17;;;24.45;;
25073;SDS011;13066;52.042;5.648;2024-03-08T01:00:06;35.08;;;22.98;;
25073;SDS011;13066;52.042;5.648;2024-03-08T01:02:39;35.43;;;23.80;;
25073;SDS011;13066;52.042;5.648;2024-03-08T01:05:08;37.65;;;25.38;;
25073;SDS011;13066;52.042;5.648;2024-03-08T01:07:36;38.97;;;24.92;;
25073;SDS011;13066;52.042;5.648;2024-03-08T01:10:04;40.40;;;25.35;;
25073;SDS011;13066;52.042;5.648;2024-03-08T01:12:37;35.72;;;24.13;;
25073;SDS011;13066;52.042;5.648;2024-03-08T01:15:05;40.13;;;24.35;;
25073;SDS011;13066;52.042;5.648;2024-03-08T01:17:34;42.08;;;25.52;;
25073;SDS011;13066;52.042;5.648;2024-03-08T01:20:03;37.35;;;23.77;;
25073;SDS011;13066;52.042;5.648;2024-03-08T01:22:31;37.13;;;24.38;;
25073;SDS011;13066;52.042;5.648;2024-03-08T01:24:59;38.45;;;25.00;;
25073;SDS011;13066;52.042;5.648;2024-03-08T01:27:29;36.65;;;24.60;;
25073;SDS011;13066;52.042;5.648;2024-03-08T01:29:57;37.35;;;24.30;;
25073;SDS011;13066;52.042;5.648;2024-03-08T01:32:26;41.72;;;25.85;;
25073;SDS011;13066;52.042;5.648;2024-03-08T01:34:54;39.03;;;25.55;;
25073;SDS011;13066;52.042;5.648;2024-03-08T01:37:22;35.95;;;23.90;;
25073;SDS011;13066;52.042;5.648;2024-03-08T01:39:51;40.63;;;24.98;;
25073;SDS011;13066;52.042;5.648;2024-03-08T01:42:18;34.80;;;24.10;;
25073;SDS011;13066;52.042;5.648;2024-03-08T01:44:48;35.35;;;24.98;;
25073;SDS011;13066;52.042;5.648;2024-03-08T01:47:16;36.08;;;24.20;;
25073;SDS011;13066;52.042;5.648;2024-03-08T01:49:44;37.38;;;24.58;;
25073;SDS011;13066;52.042;5.648;2024-03-08T01:52:12;36.10;;;24.35;;
25073;SDS011;13066;52.042;5.648;2024-03-08T01:54:41;40.45;;;24.80;;
25073;SDS011;13066;52.042;5.648;2024-03-08T01:57:09;34.97;;;24.10;;
25073;SDS011;13066;52.042;5.648;2024-03-08T01:59:37;38.90;;;25.17;;
25073;SDS011;13066;52.042;5.648;2024-03-08T02:02:08;40.53;;;24.95;;
25073;SDS011;13066;52.042;5.648;2024-03-08T02:04:38;36.00;;;24.55;;
25073;SDS011;13066;52.042;5.648;2024-03-08T02:07:07;41.50;;;26.48;;
25073;SDS011;13066;52.042;5.648;2024-03-08T02:09:37;36.85;;;24.27;;
25073;SDS011;13066;52.042;5.648;2024-03-08T02:12:06;40.17;;;25.42;;
25073;SDS011;13066;52.042;5.648;2024-03-08T02:14:37;36.95;;;25.17;;
25073;SDS011;13066;52.042;5.648;2024-03-08T02:17:07;38.10;;;25.08;;
25073;SDS011;13066;52.042;5.648;2024-03-08T02:19:38;36.33;;;24.67;;
25073;SDS011;13066;52.042;5.648;2024-03-08T02:22:08;36.42;;;24.10;;
25073;SDS011;13066;52.042;5.648;2024-03-08T02:24:36;37.60;;;24.70;;
25073;SDS011;13066;52.042;5.648;2024-03-08T02:27:04;38.90;;;26.40;;
25073;SDS011;13066;52.042;5.648;2024-03-08T02:29:33;36.05;;;24.67;;
25073;SDS011;13066;52.042;5.648;2024-03-08T02:32:01;36.25;;;24.80;;
25073;SDS011;13066;52.042;5.648;2024-03-08T02:34:31;39.22;;;25.15;;
25073;SDS011;13066;52.042;5.648;2024-03-08T02:36:59;36.88;;;24.77;;
25073;SDS011;13066;52.042;5.648;2024-03-08T02:39:28;36.28;;;24.60;;
25073;SDS011;13066;52.042;5.648;2024-03-08T02:41:58;35.25;;;25.30;;
25073;SDS011;13066;52.042;5.648;2024-03-08T02:44:26;37.60;;;25.73;;
25073;SDS011;13066;52.042;5.648;2024-03-08T02:46:55;39.55;;;26.75;;
25073;SDS011;13066;52.042;5.648;2024-03-08T02:49:23;36.05;;;25.52;;
25073;SDS011;13066;52.042;5.648;2024-03-08T02:51:51;38.45;;;26.33;;
25073;SDS011;13066;52.042;5.648;2024-03-08T02:54:19;38.50;;;27.33;;
25073;SDS011;13066;52.042;5.648;2024-03-08T02:56:49;37.53;;;25.90;;
25073;SDS011;13066;52.042;5.648;2024-03-08T02:59:18;35.15;;;25.23;;
25073;SDS011;13066;52.042;5.648;2024-03-08T03:01:45;38.75;;;25.80;;
25073;SDS011;13066;52.042;5.648;2024-03-08T03:04:14;36.80;;;25.35;;
25073;SDS011;13066;52.042;5.648;2024-03-08T03:06:42;41.78;;;26.92;;
25073;SDS011;13066;52.042;5.648;2024-03-08T03:09:10;39.67;;;26.10;;
25073;SDS011;13066;52.042;5.648;2024-03-08T03:11:38;40.00;;;25.20;;
25073;SDS011;13066;52.042;5.648;2024-03-08T03:14:08;38.47;;;26.23;;
25073;SDS011;13066;52.042;5.648;2024-03-08T03:16:36;35.17;;;24.73;;
25073;SDS011;13066;52.042;5.648;2024-03-08T03:19:04;37.00;;;26.38;;
25073;SDS011;13066;52.042;5.648;2024-03-08T03:21:33;35.13;;;23.90;;
25073;SDS011;13066;52.042;5.648;2024-03-08T03:24:02;34.25;;;24.35;;
25073;SDS011;13066;52.042;5.648;2024-03-08T03:26:36;39.00;;;25.83;;
25073;SDS011;13066;52.042;5.648;2024-03-08T03:29:05;38.55;;;25.95;;
25073;SDS011;13066;52.042;5.648;2024-03-08T03:31:36;35.72;;;26.02;;
25073;SDS011;13066;52.042;5.648;2024-03-08T03:34:04;35.38;;;25.05;;
25073;SDS011;13066;52.042;5.648;2024-03-08T03:36:35;37.78;;;25.88;;
25073;SDS011;13066;52.042;5.648;2024-03-08T03:39:05;37.50;;;26.27;;
25073;SDS011;13066;52.042;5.648;2024-03-08T03:41:37;35.45;;;25.00;;
25073;SDS011;13066;52.042;5.648;2024-03-08T03:44:05;36.95;;;25.90;;
25073;SDS011;13066;52.042;5.648;2024-03-08T03:46:34;38.05;;;26.77;;
25073;SDS011;13066;52.042;5.648;2024-03-08T03:49:04;36.70;;;25.63;;
25073;SDS011;13066;52.042;5.648;2024-03-08T03:51:32;37.17;;;27.38;;
25073;SDS011;13066;52.042;5.648;2024-03-08T03:54:01;35.85;;;25.60;;
25073;SDS011;13066;52.042;5.648;2024-03-08T03:56:30;34.88;;;25.25;;
25073;SDS011;13066;52.042;5.648;2024-03-08T03:58:58;37.22;;;26.05;;
25073;SDS011;13066;52.042;5.648;2024-03-08T04:01:26;36.53;;;26.30;;
25073;SDS011;13066;52.042;5.648;2024-03-08T04:03:56;35.25;;;26.38;;
25073;SDS011;13066;52.042;5.648;2024-03-08T04:06:24;37.67;;;26.83;;
25073;SDS011;13066;52.042;5.648;2024-03-08T04:08:52;37.72;;;25.98;;
25073;SDS011;13066;52.042;5.648;2024-03-08T04:11:20;35.15;;;25.67;;
25073;SDS011;13066;52.042;5.648;2024-03-08T04:13:49;38.38;;;27.67;;
25073;SDS011;13066;52.042;5.648;2024-03-08T04:16:17;35.03;;;25.70;;
25073;SDS011;13066;52.042;5.648;2024-03-08T04:18:45;38.45;;;26.45;;
25073;SDS011;13066;52.042;5.648;2024-03-08T04:21:15;39.10;;;26.80;;
25073;SDS011;13066;52.042;5.648;2024-03-08T04:23:43;37.38;;;26.75;;
25073;SDS011;13066;52.042;5.648;2024-03-08T04:26:11;39.22;;;27.42;;
25073;SDS011;13066;52.042;5.648;2024-03-08T04:28:43;37.78;;;26.63;;
25073;SDS011;13066;52.042;5.648;2024-03-08T04:31:11;37.30;;;26.88;;
25073;SDS011;13066;52.042;5.648;2024-03-08T04:33:39;37.40;;;26.33;;
25073;SDS011;13066;52.042;5.648;2024-03-08T04:36:07;35.85;;;26.00;;
25073;SDS011;13066;52.042;5.648;2024-03-08T04:38:41;35.85;;;25.63;;
25073;SDS011;13066;52.042;5.648;2024-03-08T04:41:09;34.33;;;25.60;;
25073;SDS011;13066;52.042;5.648;2024-03-08T04:43:38;39.47;;;26.83;;
25073;SDS011;13066;52.042;5.648;2024-03-08T04:46:06;38.63;;;26.35;;
25073;SDS011;13066;52.042;5.648;2024-03-08T04:48:35;36.10;;;27.15;;
25073;SDS011;13066;52.042;5.648;2024-03-08T04:51:04;34.92;;;26.50;;
25073;SDS011;13066;52.042;5.648;2024-03-08T04:53:32;34.55;;;26.20;;
25073;SDS011;13066;52.042;5.648;2024-03-08T04:56:02;37.22;;;26.27;;
25073;SDS011;13066;52.042;5.648;2024-03-08T04:58:33;35.05;;;26.13;;
25073;SDS011;13066;52.042;5.648;2024-03-08T05:01:03;35.25;;;25.67;;
25073;SDS011;13066;52.042;5.648;2024-03-08T05:03:31;37.75;;;27.13;;
25073;SDS011;13066;52.042;5.648;2024-03-08T05:06:00;42.20;;;28.00;;
25073;SDS011;13066;52.042;5.648;2024-03-08T05:08:28;37.75;;;27.30;;
25073;SDS011;13066;52.042;5.648;2024-03-08T05:10:56;38.33;;;27.35;;
25073;SDS011;13066;52.042;5.648;2024-03-08T05:13:26;37.00;;;27.17;;
25073;SDS011;13066;52.042;5.648;2024-03-08T05:15:54;36.28;;;26.65;;
25073;SDS011;13066;52.042;5.648;2024-03-08T05:18:24;37.78;;;26.98;;
25073;SDS011;13066;52.042;5.648;2024-03-08T05:20:55;36.30;;;26.80;;
25073;SDS011;13066;52.042;5.648;2024-03-08T05:23:23;36.10;;;26.13;;
25073;SDS011;13066;52.042;5.648;2024-03-08T05:25:51;33.65;;;25.73;;
25073;SDS011;13066;52.042;5.648;2024-03-08T05:28:19;39.45;;;27.85;;
25073;SDS011;13066;52.042;5.648;2024-03-08T05:30:49;39.70;;;27.67;;
25073;SDS011;13066;52.042;5.648;2024-03-08T05:33:17;36.90;;;25.90;;
25073;SDS011;13066;52.042;5.648;2024-03-08T05:35:46;37.15;;;27.33;;
25073;SDS011;13066;52.042;5.648;2024-03-08T05:38:14;38.83;;;27.88;;
25073;SDS011;13066;52.042;5.648;2024-03-08T05:40:42;38.17;;;27.02;;
25073;SDS011;13066;52.042;5.648;2024-03-08T05:43:10;38.70;;;27.92;;
25073;SDS011;13066;52.042;5.648;2024-03-08T05:45:38;36.70;;;26.98;;
25073;SDS011;13066;52.042;5.648;2024-03-08T05:48:08;42.30;;;29.42;;
25073;SDS011;13066;52.042;5.648;2024-03-08T05:50:36;40.60;;;28.45;;
25073;SDS011;13066;52.042;5.648;2024-03-08T05:53:05;36.88;;;27.38;;
25073;SDS011;13066;52.042;5.648;2024-03-08T05:55:33;39.28;;;27.52;;
25073;SDS011;13066;52.042;5.648;2024-03-08T05:58:02;39.95;;;27.88;;
25073;SDS011;13066;52.042;5.648;2024-03-08T06:00:30;35.78;;;27.52;;
25073;SDS011;13066;52.042;5.648;2024-03-08T06:02:58;38.65;;;28.10;;
25073;SDS011;13066;52.042;5.648;2024-03-08T06:05:28;36.70;;;26.95;;
25073;SDS011;13066;52.042;5.648;2024-03-08T06:07:56;41.58;;;27.35;;
25073;SDS011;13066;52.042;5.648;2024-03-08T06:10:24;39.75;;;27.40;;
25073;SDS011;13066;52.042;5.648;2024-03-08T06:12:52;37.03;;;27.80;;
25073;SDS011;13066;52.042;5.648;2024-03-08T06:15:21;39.40;;;28.08;;
25073;SDS011;13066;52.042;5.648;2024-03-08T06:17:49;38.22;;;28.45;;
25073;SDS011;13066;52.042;5.648;2024-03-08T06:20:19;41.70;;;28.48;;
25073;SDS011;13066;52.042;5.648;2024-03-08T06:22:54;39.42;;;28.90;;
25073;SDS011;13066;52.042;5.648;2024-03-08T06:25:22;40.15;;;29.67;;
25073;SDS011;13066;52.042;5.648;2024-03-08T06:27:50;41.17;;;29.13;;
25073;SDS011;13066;52.042;5.648;2024-03-08T06:30:19;41.28;;;28.30;;
25073;SDS011;13066;52.042;5.648;2024-03-08T06:32:48;45.42;;;29.20;;
25073;SDS011;13066;52.042;5.648;2024-03-08T06:35:16;40.15;;;28.42;;
25073;SDS011;13066;52.042;5.648;2024-03-08T06:37:44;39.08;;;27.88;;
25073;SDS011;13066;52.042;5.648;2024-03-08T06:40:14;38.75;;;28.33;;
25073;SDS011;13066;52.042;5.648;2024-03-08T06:42:42;40.17;;;28.88;;
25073;SDS011;13066;52.042;5.648;2024-03-08T06:45:10;40.40;;;29.58;;
25073;SDS011;13066;52.042;5.648;2024-03-08T06:47:39;40.30;;;29.40;;
25073;SDS011;13066;52.042;5.648;2024-03-08T06:50:08;40.70;;;29.75;;
25073;SDS011;13066;52.042;5.648;2024-03-08T06:52:38;41.63;;;29.13;;
25073;SDS011;13066;52.042;5.648;2024-03-08T06:55:07;40.97;;;29.40;;
25073;SDS011;13066;52.042;5.648;2024-03-08T06:57:40;40.97;;;29.83;;
25073;SDS011;13066;52.042;5.648;2024-03-08T07:00:08;39.78;;;28.67;;
25073;SDS011;13066;52.042;5.648;2024-03-08T07:02:40;40.63;;;28.88;;
25073;SDS011;13066;52.042;5.648;2024-03-08T07:05:08;38.83;;;28.95;;
25073;SDS011;13066;52.042;5.648;2024-03-08T07:07:37;35.88;;;27.95;;
25073;SDS011;13066;52.042;5.648;2024-03-08T07:10:08;41.60;;;30.05;;
25073;SDS011;13066;52.042;5.648;2024-03-08T07:12:38;42.20;;;30.63;;
25073;SDS011;13066;52.042;5.648;2024-03-08T07:15:07;43.38;;;30.02;;
25073;SDS011;13066;52.042;5.648;2024-03-08T07:17:40;37.53;;;28.83;;
25073;SDS011;13066;52.042;5.648;2024-03-08T07:20:11;41.58;;;30.50;;
25073;SDS011;13066;52.042;5.648;2024-03-08T07:22:40;38.65;;;29.50;;
25073;SDS011;13066;52.042;5.648;2024-03-08T07:25:12;40.08;;;30.17;;
25073;SDS011;13066;52.042;5.648;2024-03-08T07:27:50;41.08;;;30.73;;
25073;SDS011;13066;52.042;5.648;2024-03-08T07:30:19;39.42;;;28.75;;
25073;SDS011;13066;52.042;5.648;2024-03-08T07:33:06;43.53;;;31.67;;
25073;SDS011;13066;52.042;5.648;2024-03-08T07:35:34;40.75;;;30.40;;
25073;SDS011;13066;52.042;5.648;2024-03-08T07:38:04;40.35;;;30.75;;
25073;SDS011;13066;52.042;5.648;2024-03-08T07:40:33;41.40;;;29.88;;
25073;SDS011;13066;52.042;5.648;2024-03-08T07:43:04;38.83;;;29.73;;
25073;SDS011;13066;52.042;5.648;2024-03-08T07:45:32;38.78;;;29.58;;
25073;SDS011;13066;52.042;5.648;2024-03-08T07:48:03;40.20;;;30.08;;
25073;SDS011;13066;52.042;5.648;2024-03-08T07:50:36;43.28;;;31.45;;
25073;SDS011;13066;52.042;5.648;2024-03-08T07:53:05;41.28;;;29.98;;
25073;SDS011;13066;52.042;5.648;2024-03-08T07:55:34;39.60;;;29.48;;
25073;SDS011;13066;52.042;5.648;2024-03-08T07:58:02;40.22;;;29.85;;
25073;SDS011;13066;52.042;5.648;2024-03-08T08:00:33;42.15;;;30.85;;
25073;SDS011;13066;52.042;5.648;2024-03-08T08:03:02;42.63;;;29.75;;
25073;SDS011;13066;52.042;5.648;2024-03-08T08:05:31;40.35;;;30.50;;
25073;SDS011;13066;52.042;5.648;2024-03-08T08:08:01;38.00;;;30.00;;
25073;SDS011;13066;52.042;5.648;2024-03-08T08:10:33;41.80;;;30.90;;
25073;SDS011;13066;52.042;5.648;2024-03-08T08:13:01;41.55;;;30.17;;
25073;SDS011;13066;52.042;5.648;2024-03-08T08:15:32;42.58;;;30.67;;
25073;SDS011;13066;52.042;5.648;2024-03-08T08:18:01;38.63;;;29.35;;
25073;SDS011;13066;52.042;5.648;2024-03-08T08:20:33;39.53;;;29.50;;
25073;SDS011;13066;52.042;5.648;2024-03-08T08:23:01;40.08;;;29.88;;
25073;SDS011;13066;52.042;5.648;2024-03-08T08:25:30;39.45;;;30.35;;
25073;SDS011;13066;52.042;5.648;2024-03-08T08:28:02;42.92;;;31.10;;
25073;SDS011;13066;52.042;5.648;2024-03-08T08:30:32;38.65;;;28.73;;
25073;SDS011;13066;52.042;5.648;2024-03-08T08:33:01;40.65;;;30.25;;
25073;SDS011;13066;52.042;5.648;2024-03-08T08:35:33;40.90;;;30.40;;
25073;SDS011;13066;52.042;5.648;2024-03-08T08:38:00;38.95;;;29.05;;
25073;SDS011;13066;52.042;5.648;2024-03-08T08:40:30;39.65;;;29.48;;
25073;SDS011;13066;52.042;5.648;2024-03-08T08:42:59;40.28;;;28.98;;
25073;SDS011;13066;52.042;5.648;2024-03-08T08:45:27;42.55;;;29.40;;
25073;SDS011;13066;52.042;5.648;2024-03-08T08:47:58;39.88;;;28.50;;
25073;SDS011;13066;52.042;5.648;2024-03-08T08:50:27;40.10;;;29.38;;
25073;SDS011;13066;52.042;5.648;2024-03-08T08:52:55;39.78;;;28.70;;
25073;SDS011;13066;52.042;5.648;2024-03-08T08:55:24;39.95;;;29.98;;
25073;SDS011;13066;52.042;5.648;2024-03-08T08:57:53;37.03;;;27.80;;
25073;SDS011;13066;52.042;5.648;2024-03-08T09:00:23;35.40;;;28.17;;
25073;SDS011;13066;52.042;5.648;2024-03-08T09:02:54;36.85;;;27.98;;
25073;SDS011;13066;52.042;5.648;2024-03-08T09:05:26;41.38;;;29.25;;
25073;SDS011;13066;52.042;5.648;2024-03-08T09:07:54;40.28;;;29.70;;
25073;SDS011;13066;52.042;5.648;2024-03-08T09:10:22;38.58;;;29.05;;
25073;SDS011;13066;52.042;5.648;2024-03-08T09:12:56;37.17;;;29.25;;
25073;SDS011;13066;52.042;5.648;2024-03-08T09:15:26;35.22;;;27.05;;
25073;SDS011;13066;52.042;5.648;2024-03-08T09:17:55;40.50;;;28.88;;
25073;SDS011;13066;52.042;5.648;2024-03-08T09:20:25;36.92;;;28.38;;
25073;SDS011;13066;52.042;5.648;2024-03-08T09:22:53;34.83;;;26.15;;
25073;SDS011;13066;52.042;5.648;2024-03-08T09:25:21;35.05;;;25.80;;
25073;SDS011;13066;52.042;5.648;2024-03-08T09:27:49;35.50;;;26.52;;
25073;SDS011;13066;52.042;5.648;2024-03-08T09:30:18;40.75;;;28.98;;
25073;SDS011;13066;52.042;5.648;2024-03-08T09:32:48;38.85;;;28.52;;
25073;SDS011;13066;52.042;5.648;2024-03-08T09:35:18;36.58;;;27.95;;
25073;SDS011;13066;52.042;5.648;2024-03-08T09:37:48;36.33;;;27.05;;
25073;SDS011;13066;52.042;5.648;2024-03-08T09:40:18;34.67;;;26.55;;
25073;SDS011;13066;52.042;5.648;2024-03-08T09:42:47;34.63;;;26.85;;
25073;SDS011;13066;52.042;5.648;2024-03-08T09:45:16;38.47;;;25.75;;
25073;SDS011;13066;52.042;5.648;2024-03-08T09:47:44;33.70;;;26.23;;
25073;SDS011;13066;52.042;5.648;2024-03-08T09:50:13;36.10;;;26.20;;
25073;SDS011;13066;52.042;5.648;2024-03-08T09:52:42;32.28;;;25.23;;
25073;SDS011;13066;52.042;5.648;2024-03-08T09:55:12;32.03;;;24.90;;
25073;SDS011;13066;52.042;5.648;2024-03-08T09:57:41;31.13;;;24.73;;
25073;SDS011;13066;52.042;5.648;2024-03-08T10:00:30;35.85;;;26.20;;
25073;SDS011;13066;52.042;5.648;2024-03-08T10:03:00;32.60;;;25.17;;
25073;SDS011;13066;52.042;5.648;2024-03-08T10:05:28;29.67;;;23.48;;
25073;SDS011;13066;52.042;5.648;2024-03-08T10:07:59;30.55;;;23.40;;
25073;SDS011;13066;52.042;5.648;2024-03-08T10:10:28;28.75;;;23.60;;
25073;SDS011;13066;52.042;5.648;2024-03-08T10:12:56;30.00;;;24.45;;
25073;SDS011;13066;52.042;5.648;2024-03-08T10:15:26;29.60;;;23.17;;
25073;SDS011;13066;52.042;5.648;2024-03-08T10:17:55;31.60;;;24.35;;
25073;SDS011;13066;52.042;5.648;2024-03-08T10:20:24;31.02;;;22.98;;
25073;SDS011;13066;52.042;5.648;2024-03-08T10:22:53;30.42;;;23.80;;
25073;SDS011;13066;52.042;5.648;2024-03-08T10:25:37;27.90;;;21.85;;
25073;SDS011;13066;52.042;5.648;2024-03-08T10:28:06;28.77;;;22.90;;
25073;SDS011;13066;52.042;5.648;2024-03-08T10:30:34;28.85;;;22.35;;
25073;SDS011;13066;52.042;5.648;2024-03-08T10:33:03;30.33;;;23.42;;
25073;SDS011;13066;52.042;5.648;2024-03-08T10:35:32;29.67;;;23.20;;
25073;SDS011;13066;52.042;5.648;2024-03-08T10:38:01;29.75;;;22.70;;
25073;SDS011;13066;52.042;5.648;2024-03-08T10:40:34;29.25;;;22.17;;
25073;SDS011;13066;52.042;5.648;2024-03-08T10:43:04;28.02;;;20.02;;
25073;SDS011;13066;52.042;5.648;2024-03-08T10:45:37;27.95;;;21.42;;
25073;SDS011;13066;52.042;5.648;2024-03-08T10:48:10;27.92;;;22.42;;
25073;SDS011;13066;52.042;5.648;2024-03-08T10:50:49;25.38;;;20.23;;
25073;SDS011;13066;52.042;5.648;2024-03-08T10:53:19;24.80;;;18.95;;
25073;SDS011;13066;52.042;5.648;2024-03-08T10:55:50;29.02;;;20.73;;
25073;SDS011;13066;52.042;5.648;2024-03-08T10:58:20;23.77;;;19.52;;
25073;SDS011;13066;52.042;5.648;2024-03-08T11:00:49;25.25;;;19.73;;
25073;SDS011;13066;52.042;5.648;2024-03-08T11:06:16;22.50;;;17.20;;
25073;SDS011;13066;52.042;5.648;2024-03-08T11:08:46;20.92;;;17.83;;
25073;SDS011;13066;52.042;5.648;2024-03-08T11:11:27;21.83;;;17.17;;
25073;SDS011;13066;52.042;5.648;2024-03-08T11:14:00;22.30;;;17.13;;
25073;SDS011;13066;52.042;5.648;2024-03-08T11:16:36;20.77;;;17.02;;
25073;SDS011;13066;52.042;5.648;2024-03-08T11:19:23;20.52;;;16.27;;
25073;SDS011;13066;52.042;5.648;2024-03-08T11:21:58;20.40;;;16.67;;
25073;SDS011;13066;52.042;5.648;2024-03-08T11:24:36;20.50;;;16.42;;
25073;SDS011;13066;52.042;5.648;2024-03-08T11:27:08;20.67;;;16.77;;
25073;SDS011;13066;52.042;5.648;2024-03-08T11:29:38;20.63;;;15.38;;
25073;SDS011;13066;52.042;5.648;2024-03-08T11:32:10;19.17;;;15.07;;
25073;SDS011;13066;52.042;5.648;2024-03-08T11:34:40;22.25;;;17.23;;
25073;SDS011;13066;52.042;5.648;2024-03-08T11:37:12;22.55;;;17.90;;
25073;SDS011;13066;52.042;5.648;2024-03-08T11:39:46;20.83;;;16.80;;
25073;SDS011;13066;52.042;5.648;2024-03-08T11:42:16;21.73;;;16.13;;
25073;SDS011;13066;52.042;5.648;2024-03-08T11:44:45;20.13;;;15.13;;
25073;SDS011;13066;52.042;5.648;2024-03-08T11:47:14;21.38;;;15.90;;
25073;SDS011;13066;52.042;5.648;2024-03-08T11:49:43;19.08;;;15.40;;
25073;SDS011;13066;52.042;5.648;2024-03-08T11:52:14;19.70;;;15.40;;
25073;SDS011;13066;52.042;5.648;2024-03-08T11:54:47;19.67;;;16.13;;
25073;SDS011;13066;52.042;5.648;2024-03-08T11:59:49;20.85;;;16.50;;
25073;SDS011;13066;52.042;5.648;2024-03-08T12:02:20;20.40;;;16.30;;
25073;SDS011;13066;52.042;5.648;2024-03-08T12:04:55;21.00;;;16.77;;
25073;SDS011;13066;52.042;5.648;2024-03-08T12:07:23;20.08;;;15.75;;
25073;SDS011;13066;52.042;5.648;2024-03-08T12:10:14;22.50;;;16.45;;
25073;SDS011;13066;52.042;5.648;2024-03-08T12:12:45;17.80;;;14.88;;
25073;SDS011;13066;52.042;5.648;2024-03-08T12:15:15;20.88;;;16.17;;
25073;SDS011;13066;52.042;5.648;2024-03-08T12:17:44;21.27;;;15.90;;
25073;SDS011;13066;52.042;5.648;2024-03-08T12:20:15;19.13;;;15.73;;
25073;SDS011;13066;52.042;5.648;2024-03-08T12:22:44;18.48;;;15.60;;
25073;SDS011;13066;52.042;5.648;2024-03-08T12:25:13;19.63;;;16.92;;
25073;SDS011;13066;52.042;5.648;2024-03-08T12:27:41;21.35;;;16.08;;
25073;SDS011;13066;52.042;5.648;2024-03-08T12:30:19;19.90;;;16.48;;
25073;SDS011;13066;52.042;5.648;2024-03-08T12:32:50;18.20;;;15.05;;
25073;SDS011;13066;52.042;5.648;2024-03-08T12:35:20;19.05;;;15.60;;
25073;SDS011;13066;52.042;5.648;2024-03-08T12:37:50;18.17;;;15.10;;
25073;SDS011;13066;52.042;5.648;2024-03-08T12:40:19;20.58;;;15.32;;
25073;SDS011;13066;52.042;5.648;2024-03-08T12:42:54;19.27;;;15.63;;
25073;SDS011;13066;52.042;5.648;2024-03-08T12:45:24;20.05;;;16.23;;
25073;SDS011;13066;52.042;5.648;2024-03-08T12:47:54;19.98;;;16.20;;
25073;SDS011;13066;52.042;5.648;2024-03-08T12:50:22;19.33;;;16.40;;
25073;SDS011;13066;52.042;5.648;2024-03-08T12:52:51;22.52;;;17.70;;
25073;SDS011;13066;52.042;5.648;2024-03-08T12:55:20;22.65;;;17.08;;
25073;SDS011;13066;52.042;5.648;2024-03-08T12:57:49;19.25;;;16.13;;
25073;SDS011;13066;52.042;5.648;2024-03-08T13:00:19;20.67;;;17.77;;
25073;SDS011;13066;52.042;5.648;2024-03-08T13:02:52;22.08;;;17.92;;
25073;SDS011;13066;52.042;5.648;2024-03-08T13:05:19;21.70;;;16.85;;
25073;SDS011;13066;52.042;5.648;2024-03-08T13:07:48;19.75;;;16.90;;
25073;SDS011;13066;52.042;5.648;2024-03-08T13:10:16;20.50;;;16.83;;
25073;SDS011;13066;52.042;5.648;2024-03-08T13:12:47;21.13;;;16.55;;
25073;SDS011;13066;52.042;5.648;2024-03-08T13:15:19;19.00;;;15.88;;
25073;SDS011;13066;52.042;5.648;2024-03-08T13:17:48;19.80;;;16.65;;
25073;SDS011;13066;52.042;5.648;2024-03-08T13:20:18;20.10;;;16.42;;
25073;SDS011;13066;52.042;5.648;2024-03-08T13:22:56;21.40;;;17.38;;
25073;SDS011;13066;52.042;5.648;2024-03-08T13:25:28;21.65;;;17.15;;
25073;SDS011;13066;52.042;5.648;2024-03-08T13:27:56;21.42;;;17.38;;
25073;SDS011;13066;52.042;5.648;2024-03-08T13:30:27;21.15;;;17.20;;
25073;SDS011;13066;52.042;5.648;2024-03-08T13:32:57;23.92;;;18.15;;
25073;SDS011;13066;52.042;5.648;2024-03-08T13:35:27;23.08;;;16.92;;
25073;SDS011;13066;52.042;5.648;2024-03-08T13:37:57;22.40;;;17.48;;
25073;SDS011;13066;52.042;5.648;2024-03-08T13:40:25;23.02;;;18.45;;
25073;SDS011;13066;52.042;5.648;2024-03-08T13:42:53;25.95;;;18.42;;
25073;SDS011;13066;52.042;5.648;2024-03-08T13:45:21;23.42;;;18.17;;
25073;SDS011;13066;52.042;5.648;2024-03-08T13:47:51;21.63;;;17.58;;
25073;SDS011;13066;52.042;5.648;2024-03-08T13:50:21;20.85;;;18.40;;
25073;SDS011;13066;52.042;5.648;2024-03-08T13:52:51;19.95;;;16.85;;
25073;SDS011;13066;52.042;5.648;2024-03-08T13:55:22;21.00;;;16.75;;
25073;SDS011;13066;52.042;5.648;2024-03-08T13:57:52;22.05;;;17.02;;
25073;SDS011;13066;52.042;5.648;2024-03-08T14:00:20;19.77;;;17.02;;
25073;SDS011;13066;52.042;5.648;2024-03-08T14:02:51;20.63;;;17.30;;
25073;SDS011;13066;52.042;5.648;2024-03-08T14:05:20;20.65;;;16.88;;
25073;SDS011;13066;52.042;5.648;2024-03-08T14:07:49;24.67;;;18.25;;
25073;SDS011;13066;52.042;5.648;2024-03-08T14:10:18;22.23;;;17.25;;
25073;SDS011;13066;52.042;5.648;2024-03-08T14:12:49;23.45;;;18.70;;
25073;SDS011;13066;52.042;5.648;2024-03-08T14:15:17;23.02;;;18.23;;
25073;SDS011;13066;52.042;5.648;2024-03-08T14:17:52;26.38;;;18.50;;
25073;SDS011;13066;52.042;5.648;2024-03-08T14:20:20;23.52;;;19.42;;
25073;SDS011;13066;52.042;5.648;2024-03-08T14:22:52;23.13;;;18.35;;
25073;SDS011;13066;52.042;5.648;2024-03-08T14:25:23;22.25;;;18.05;;
25073;SDS011;13066;52.042;5.648;2024-03-08T14:27:52;22.23;;;17.77;;
25073;SDS011;13066;52.042;5.648;2024-03-08T14:30:25;22.33;;;18.02;;
25073;SDS011;13066;52.042;5.648;2024-03-08T14:33:01;21.58;;;17.40;;
25073;SDS011;13066;52.042;5.648;2024-03-08T14:35:32;21.50;;;17.70;;
25073;SDS011;13066;52.042;5.648;2024-03-08T14:38:01;20.67;;;16.75;;
25073;SDS011;13066;52.042;5.648;2024-03-08T14:40:31;20.48;;;16.85;;